Time;durP1;ratioP1;P1;durP2;ratioP2;P2;SDS_P1;SDS_P2;PMS_P1;PMS_P2;Temp;Humidity;BMP_temperature;BMP_pressure;BME280_temperature;BME280_humidity;BME280_pressure;Samples;Min_cycle;Max_cycle;Signal;HPM_P1;HPM_P2
2024/03/20 00:01:21;;;;;;;5.57;5.10;;;11.00;99.90;;;;;;5038806;28;20871;-84
2024/03/20 00:03:48;;;;;;;6.07;5.47;;;10.90;99.90;;;;;;5039239;28;20514;-85
2024/03/20 00:06:16;;;;;;;5.80;5.30;;;10.90;99.90;;;;;;5041586;28;20883;-84
2024/03/20 00:08:43;;;;;;;6.83;6.13;;;10.80;99.90;;;;;;5041913;28;20535;-85
2024/03/20 00:11:10;;;;;;;5.90;5.27;;;10.70;99.90;;;;;;5040438;28;20543;-84
2024/03/20 00:13:37;;;;;;;6.53;4.70;;;10.60;99.90;;;;;;5037703;28;20552;-85
2024/03/20 00:16:05;;;;;;;7.10;6.03;;;10.70;99.90;;;;;;5040759;28;20450;-85
2024/03/20 00:18:36;;;;;;;5.30;4.90;;;10.80;99.90;;;;;;5040378;28;20476;-84
2024/03/20 00:21:03;;;;;;;5.80;5.00;;;10.80;99.90;;;;;;5039630;28;20451;-83
2024/03/20 00:23:30;;;;;;;5.43;4.70;;;10.80;99.90;;;;;;5037967;28;20499;-84
2024/03/20 00:26:00;;;;;;;5.93;5.17;;;10.70;99.90;;;;;;5040096;28;20629;-84
2024/03/20 00:28:27;;;;;;;6.40;4.93;;;10.60;99.90;;;;;;5038770;28;20445;-84
2024/03/20 00:30:54;;;;;;;5.33;5.00;;;10.60;99.90;;;;;;5019795;28;20510;-84
2024/03/20 00:33:21;;;;;;;5.07;4.70;;;10.60;99.90;;;;;;5037824;28;20468;-84
2024/03/20 00:35:50;;;;;;;5.37;4.87;;;10.60;99.90;;;;;;5037539;28;20498;-84
2024/03/20 00:38:16;;;;;;;5.93;5.43;;;10.60;99.90;;;;;;5039729;28;20498;-84
2024/03/20 00:40:43;;;;;;;5.07;4.67;;;10.60;99.90;;;;;;5022260;28;21043;-85
2024/03/20 00:43:10;;;;;;;9.03;5.00;;;10.60;99.90;;;;;;5038342;28;20478;-84
2024/03/20 00:45:37;;;;;;;4.90;4.50;;;10.40;99.90;;;;;;5037229;28;20484;-84
2024/03/20 00:48:05;;;;;;;5.17;4.67;;;10.30;99.90;;;;;;5055937;28;20477;-84
2024/03/20 00:50:34;;;;;;;4.97;4.57;;;10.30;99.90;;;;;;5036797;28;20838;-85
2024/03/20 00:53:02;;;;;;;5.67;5.27;;;10.30;99.90;;;;;;5034517;28;20546;-84
2024/03/20 00:55:29;;;;;;;4.80;4.47;;;10.30;99.90;;;;;;5038687;28;20490;-85
2024/03/20 00:57:56;;;;;;;5.13;4.73;;;10.30;99.90;;;;;;5024042;28;20535;-84
2024/03/20 01:00:23;;;;;;;5.20;4.80;;;10.30;99.90;;;;;;5042986;28;20538;-84
2024/03/20 01:02:50;;;;;;;5.60;5.10;;;10.20;99.90;;;;;;5037742;28;21042;-84
2024/03/20 01:05:17;;;;;;;4.50;4.20;;;10.20;99.90;;;;;;5035144;28;20456;-84
2024/03/20 01:07:44;;;;;;;5.47;4.97;;;10.20;99.90;;;;;;5055906;28;20471;-85
2024/03/20 01:10:13;;;;;;;5.33;4.83;;;10.20;99.90;;;;;;5038266;28;20563;-84
2024/03/20 01:12:40;;;;;;;5.60;5.10;;;10.30;99.90;;;;;;5037740;28;20521;-85
2024/03/20 01:15:08;;;;;;;5.60;5.20;;;10.30;99.90;;;;;;5045045;28;20525;-84
2024/03/20 01:17:35;;;;;;;5.63;5.23;;;10.30;99.90;;;;;;5045698;28;20448;-84
2024/03/20 01:20:03;;;;;;;5.53;4.50;;;10.20;99.90;;;;;;5039713;28;20526;-84
2024/03/20 01:22:35;;;;;;;5.73;5.00;;;10.10;99.90;;;;;;5034128;28;20529;-83
2024/03/20 01:25:04;;;;;;;4.90;4.40;;;10.20;1.00;;;;;;5036784;28;20475;-84
2024/03/20 01:27:33;;;;;;;4.70;4.23;;;10.20;99.90;;;;;;5022024;28;20543;-84
2024/03/20 01:30:00;;;;;;;5.07;4.77;;;10.10;99.90;;;;;;5031389;28;20509;-84
2024/03/20 01:32:26;;;;;;;4.53;4.23;;;10.10;99.90;;;;;;5020292;28;21374;-83
2024/03/20 01:34:53;;;;;;;4.43;4.13;;;10.20;99.90;;;;;;5036427;28;20444;-83
2024/03/20 01:37:20;;;;;;;7.20;4.73;;;10.20;99.90;;;;;;5040341;28;20494;-84
2024/03/20 01:39:48;;;;;;;5.10;4.80;;;10.20;99.90;;;;;;5039213;28;20534;-84
2024/03/20 01:42:15;;;;;;;6.60;4.73;;;10.10;99.90;;;;;;5037140;28;20475;-83
2024/03/20 01:44:43;;;;;;;5.17;4.67;;;10.10;99.90;;;;;;5032471;28;20543;-83
2024/03/20 01:47:11;;;;;;;8.70;5.50;;;9.90;99.90;;;;;;5032593;28;20529;-84
2024/03/20 01:49:39;;;;;;;6.47;4.33;;;9.90;99.90;;;;;;5031384;28;20530;-84
2024/03/20 01:52:07;;;;;;;4.93;4.43;;;10.00;99.90;;;;;;5033698;28;20562;-84
2024/03/20 01:54:34;;;;;;;5.60;5.10;;;9.90;99.90;;;;;;5034475;28;21110;-84
2024/03/20 01:57:02;;;;;;;5.30;4.43;;;9.80;99.90;;;;;;5035150;28;20490;-84
2024/03/20 01:59:29;;;;;;;5.03;4.60;;;9.90;99.90;;;;;;5036033;28;20444;-84
2024/03/20 02:01:58;;;;;;;6.40;5.20;;;9.90;99.90;;;;;;5047744;28;20543;-84
2024/03/20 02:04:25;;;;;;;7.07;4.43;;;9.80;99.90;;;;;;5034917;28;20497;-83
2024/03/20 02:06:52;;;;;;;7.93;5.03;;;9.80;99.90;;;;;;5030550;28;20468;-84
2024/03/20 02:09:19;;;;;;;6.43;5.93;;;9.80;99.90;;;;;;5033275;28;20449;-83
2024/03/20 02:11:46;;;;;;;5.07;4.43;;;9.70;99.90;;;;;;5034332;28;20550;-83
2024/03/20 02:14:13;;;;;;;4.53;4.13;;;9.80;99.90;;;;;;5033648;28;20916;-83
2024/03/20 02:16:41;;;;;;;5.67;5.20;;;9.70;99.90;;;;;;5033619;28;21062;-83
2024/03/20 02:19:09;;;;;;;4.50;4.20;;;9.80;99.90;;;;;;5033742;28;20459;-82
2024/03/20 02:21:38;;;;;;;4.80;4.40;;;9.70;99.90;;;;;;5038766;28;20487;-83
2024/03/20 02:24:07;;;;;;;6.83;5.40;;;9.70;99.90;;;;;;5034858;28;20475;-83
2024/03/20 02:26:34;;;;;;;5.50;4.97;;;9.70;99.90;;;;;;5032663;28;20449;-82
2024/03/20 02:29:01;;;;;;;5.00;4.60;;;9.70;99.90;;;;;;5031231;28;20570;-84
2024/03/20 02:31:29;;;;;;;6.03;5.30;;;9.70;99.90;;;;;;5036740;28;20522;-82
2024/03/20 02:33:57;;;;;;;5.00;4.70;;;9.60;99.90;;;;;;5033728;28;20512;-83
2024/03/20 02:36:24;;;;;;;12.40;5.10;;;9.70;99.90;;;;;;5039183;28;20538;-83
2024/03/20 02:38:52;;;;;;;5.97;5.47;;;9.60;99.90;;;;;;5035827;28;20575;-83
2024/03/20 02:41:20;;;;;;;4.80;4.40;;;9.60;99.90;;;;;;5032540;28;20455;-83
2024/03/20 02:43:47;;;;;;;4.80;4.50;;;9.70;99.90;;;;;;5036831;28;20475;-83
2024/03/20 02:46:14;;;;;;;7.43;4.77;;;9.60;99.90;;;;;;5032872;28;20526;-84
2024/03/20 02:48:42;;;;;;;5.03;4.63;;;9.60;99.90;;;;;;5032694;28;20484;-82
2024/03/20 02:51:09;;;;;;;7.73;5.37;;;9.50;99.90;;;;;;5034955;28;20506;-83
2024/03/20 02:53:36;;;;;;;5.23;4.77;;;9.50;99.90;;;;;;5033883;28;20570;-83
2024/03/20 02:56:05;;;;;;;4.87;4.37;;;9.50;99.90;;;;;;5036666;28;20542;-82
2024/03/20 02:58:33;;;;;;;5.07;4.77;;;9.50;99.90;;;;;;5037289;28;20883;-83
2024/03/20 03:01:00;;;;;;;6.23;5.67;;;9.60;99.90;;;;;;5034819;28;20526;-84
2024/03/20 03:03:27;;;;;;;4.50;4.20;;;9.50;99.90;;;;;;5033965;28;20518;-84
2024/03/20 03:05:54;;;;;;;7.03;5.10;;;9.60;99.90;;;;;;5026820;28;20491;-84
2024/03/20 03:08:21;;;;;;;4.87;4.47;;;9.60;99.90;;;;;;5036857;28;20447;-83
2024/03/20 03:10:49;;;;;;;4.67;4.37;;;9.50;99.90;;;;;;5040592;28;20480;-83
2024/03/20 03:13:18;;;;;;;4.77;4.37;;;9.50;99.90;;;;;;5020308;28;20578;-83
2024/03/20 03:15:45;;;;;;;4.90;4.47;;;9.50;99.90;;;;;;5034972;28;20487;-83
2024/03/20 03:18:12;;;;;;;5.33;4.93;;;9.50;99.90;;;;;;5033988;28;20451;-84
2024/03/20 03:20:42;;;;;;;8.97;5.17;;;9.50;1.00;;;;;;5038564;28;20550;-84
2024/03/20 03:23:10;;;;;;;5.13;4.63;;;9.50;1.00;;;;;;5034131;28;20474;-83
2024/03/20 03:25:37;;;;;;;5.13;4.80;;;9.50;99.90;;;;;;5036197;28;20452;-83
2024/03/20 03:28:04;;;;;;;5.27;4.53;;;9.50;99.90;;;;;;5034039;28;20480;-83
2024/03/20 03:30:33;;;;;;;5.47;4.97;;;9.50;99.90;;;;;;5035821;28;20550;-84
2024/03/20 03:33:00;;;;;;;6.17;5.43;;;9.50;99.90;;;;;;5035592;28;20996;-84
2024/03/20 03:35:28;;;;;;;4.50;4.20;;;9.50;99.90;;;;;;5034597;28;20927;-84
2024/03/20 03:37:55;;;;;;;8.40;4.97;;;9.50;99.90;;;;;;5033894;28;20510;-84
2024/03/20 03:40:22;;;;;;;5.60;5.00;;;9.40;99.90;;;;;;5039656;28;20484;-84
2024/03/20 03:42:49;;;;;;;5.30;5.00;;;9.40;99.90;;;;;;5037778;28;20479;-85
2024/03/20 03:45:17;;;;;;;5.17;4.67;;;9.30;99.90;;;;;;5036051;28;20459;-84
2024/03/20 03:47:47;;;;;;;5.33;4.83;;;9.30;99.90;;;;;;5037845;28;20459;-83
2024/03/20 03:50:14;;;;;;;5.70;5.03;;;9.30;99.90;;;;;;5035946;28;20529;-84
2024/03/20 03:52:41;;;;;;;5.10;4.63;;;9.30;99.90;;;;;;5039678;28;20510;-83
2024/03/20 03:55:09;;;;;;;6.33;4.20;;;9.30;99.90;;;;;;5037704;28;20553;-82
2024/03/20 03:57:36;;;;;;;5.30;4.80;;;9.20;99.90;;;;;;5036455;28;20531;-82
2024/03/20 04:00:05;;;;;;;5.03;4.33;;;9.20;99.90;;;;;;5035898;28;20955;-84
2024/03/20 04:02:33;;;;;;;5.10;4.70;;;9.20;99.90;;;;;;5038643;28;20481;-83
2024/03/20 04:05:04;;;;;;;5.70;5.20;;;9.20;99.90;;;;;;5038111;28;20543;-84
2024/03/20 04:07:31;;;;;;;5.00;4.60;;;9.20;99.90;;;;;;5038175;28;20545;-83
2024/03/20 04:09:59;;;;;;;5.30;4.67;;;9.20;99.90;;;;;;5039135;28;20579;-83
2024/03/20 04:12:26;;;;;;;4.63;4.30;;;9.20;99.90;;;;;;5056309;28;20487;-85
2024/03/20 04:14:53;;;;;;;6.07;5.47;;;9.20;99.90;;;;;;5040517;28;20558;-84
2024/03/20 04:17:20;;;;;;;5.40;4.97;;;9.30;99.90;;;;;;5042416;28;20451;-83
2024/03/20 04:19:47;;;;;;;4.80;4.50;;;9.20;99.90;;;;;;5037647;28;20505;-84
2024/03/20 04:22:16;;;;;;;4.90;4.53;;;9.20;99.90;;;;;;5035747;28;20962;-83
2024/03/20 04:24:43;;;;;;;5.37;4.87;;;9.10;99.90;;;;;;5035495;28;20559;-84
2024/03/20 04:27:10;;;;;;;4.77;4.37;;;9.10;99.90;;;;;;5037624;28;20482;-84
2024/03/20 04:29:37;;;;;;;5.37;4.97;;;9.10;99.90;;;;;;5037018;28;20558;-84
2024/03/20 04:32:05;;;;;;;5.50;4.53;;;9.20;99.90;;;;;;5036143;28;20919;-84
2024/03/20 04:34:32;;;;;;;6.23;4.93;;;9.20;99.90;;;;;;5034674;28;20527;-83
2024/03/20 04:36:59;;;;;;;5.03;4.63;;;9.10;99.90;;;;;;5037482;28;20494;-84
2024/03/20 04:39:32;;;;;;;4.50;4.20;;;9.10;99.90;;;;;;5036139;28;20536;-84
2024/03/20 04:42:00;;;;;;;4.90;4.47;;;9.10;99.90;;;;;;5034543;28;20465;-84
2024/03/20 04:44:27;;;;;;;5.93;4.50;;;9.10;99.90;;;;;;5036040;28;21053;-83
2024/03/20 04:46:54;;;;;;;4.77;4.50;;;9.10;99.90;;;;;;5034423;28;20484;-85
2024/03/20 04:49:21;;;;;;;5.00;4.60;;;9.10;99.90;;;;;;5036749;28;20455;-84
2024/03/20 04:51:48;;;;;;;5.00;4.60;;;9.10;99.90;;;;;;5042454;28;20541;-84
2024/03/20 04:54:16;;;;;;;6.53;4.90;;;9.00;99.90;;;;;;5055375;28;21057;-84
2024/03/20 04:56:44;;;;;;;5.03;4.60;;;9.00;99.90;;;;;;5048978;28;20452;-84
2024/03/20 04:59:12;;;;;;;5.33;4.83;;;9.00;99.90;;;;;;5043384;28;20481;-84
2024/03/20 05:01:39;;;;;;;5.20;4.83;;;9.00;99.90;;;;;;5027432;28;20922;-84
2024/03/20 05:04:06;;;;;;;4.90;4.50;;;9.00;99.90;;;;;;5038968;28;20475;-84
2024/03/20 05:06:33;;;;;;;5.57;5.17;;;8.90;1.00;;;;;;5038805;28;20992;-85
2024/03/20 05:09:02;;;;;;;5.83;5.30;;;9.00;1.00;;;;;;5021759;28;20447;-83
2024/03/20 05:11:29;;;;;;;5.00;4.70;;;9.00;99.90;;;;;;5038217;28;20504;-82
2024/03/20 05:13:58;;;;;;;6.20;5.70;;;9.00;1.00;;;;;;5041254;28;20718;-82
2024/03/20 05:16:25;;;;;;;5.77;5.27;;;9.00;99.90;;;;;;5038714;28;20469;-83
2024/03/20 05:18:51;;;;;;;5.50;5.00;;;9.00;99.90;;;;;;5041527;28;20490;-83
2024/03/20 05:21:18;;;;;;;5.70;5.20;;;8.90;99.90;;;;;;5038598;28;20488;-83
2024/03/20 05:23:45;;;;;;;5.57;4.97;;;8.90;1.00;;;;;;5024004;28;21019;-82
2024/03/20 05:26:12;;;;;;;5.70;5.20;;;8.90;1.00;;;;;;5024660;28;20459;-82
2024/03/20 05:28:39;;;;;;;5.10;4.63;;;8.90;1.00;;;;;;5042640;28;20475;-83
2024/03/20 05:31:07;;;;;;;6.20;5.70;;;8.90;99.90;;;;;;5038249;28;20858;-82
2024/03/20 05:33:34;;;;;;;6.00;5.47;;;8.90;99.90;;;;;;5039997;28;20502;-80
2024/03/20 05:36:01;;;;;;;5.80;5.30;;;8.80;1.00;;;;;;5019456;28;20536;-80
2024/03/20 05:38:28;;;;;;;7.30;5.50;;;8.80;1.00;;;;;;5034474;28;20480;-84
2024/03/20 05:40:55;;;;;;;6.23;5.73;;;8.80;1.00;;;;;;5037003;28;20486;-83
2024/03/20 05:43:21;;;;;;;4.93;4.63;;;8.80;1.00;;;;;;5037771;28;20507;-82
2024/03/20 05:45:48;;;;;;;6.50;5.90;;;8.90;1.00;;;;;;5041146;28;20488;-83
2024/03/20 05:48:16;;;;;;;5.77;5.37;;;9.00;1.00;;;;;;5038372;28;20550;-84
2024/03/20 05:50:43;;;;;;;6.00;5.40;;;9.00;1.00;;;;;;5038641;28;20495;-84
2024/03/20 05:53:09;;;;;;;6.00;5.50;;;9.00;99.90;;;;;;5040563;28;20503;-82
2024/03/20 05:55:36;;;;;;;5.87;5.37;;;8.90;99.90;;;;;;5031696;28;20542;-82
2024/03/20 05:58:02;;;;;;;7.00;6.30;;;8.90;99.90;;;;;;5039732;28;20459;-81
2024/03/20 06:00:29;;;;;;;5.83;5.37;;;8.80;99.90;;;;;;5036382;28;20567;-84
2024/03/20 06:02:56;;;;;;;6.80;6.30;;;8.80;1.00;;;;;;5038390;28;20482;-83
2024/03/20 06:05:25;;;;;;;6.30;5.70;;;8.80;1.00;;;;;;5036006;28;20490;-82
2024/03/20 06:07:51;;;;;;;8.17;6.27;;;8.90;1.00;;;;;;5037407;28;20481;-83
2024/03/20 06:10:18;;;;;;;6.97;6.27;;;8.90;1.00;;;;;;5038552;28;20471;-85
2024/03/20 06:12:44;;;;;;;8.37;7.37;;;8.90;1.00;;;;;;5030705;28;20494;-82
2024/03/20 06:15:11;;;;;;;7.60;6.97;;;8.90;1.00;;;;;;5036477;28;20478;-84
2024/03/20 06:17:38;;;;;;;8.03;7.23;;;8.90;1.00;;;;;;5038438;28;20447;-84
2024/03/20 06:20:08;;;;;;;12.47;6.50;;;9.00;1.00;;;;;;5032928;28;20467;-85
2024/03/20 06:22:36;;;;;;;7.97;7.40;;;9.00;1.00;;;;;;5036382;28;21092;-83
2024/03/20 06:25:06;;;;;;;6.43;5.90;;;9.10;1.00;;;;;;5036890;28;20602;-82
2024/03/20 06:27:33;;;;;;;6.93;6.33;;;9.20;1.00;;;;;;5054342;28;20458;-81
2024/03/20 06:30:00;;;;;;;7.30;6.73;;;9.30;1.00;;;;;;5037585;28;20477;-82
2024/03/20 06:32:28;;;;;;;7.27;6.57;;;9.30;1.00;;;;;;5038778;28;20534;-84
2024/03/20 06:34:55;;;;;;;7.20;6.70;;;9.40;1.00;;;;;;5036471;28;20501;-83
2024/03/20 06:37:21;;;;;;;6.93;6.40;;;9.50;1.00;;;;;;5039018;28;20561;-82
2024/03/20 06:39:49;;;;;;;7.67;6.73;;;9.70;1.00;;;;;;5039932;28;20543;-82
2024/03/20 06:42:20;;;;;;;7.37;6.77;;;9.70;1.00;;;;;;5037139;28;20556;-82
2024/03/20 06:44:47;;;;;;;8.20;7.40;;;9.80;1.00;;;;;;5040138;28;20470;-83
2024/03/20 06:47:13;;;;;;;6.83;6.33;;;9.80;1.00;;;;;;5036707;28;20502;-81
2024/03/20 06:49:41;;;;;;;7.57;6.90;;;9.90;1.00;;;;;;5016566;28;20515;-82
2024/03/20 06:52:07;;;;;;;8.07;7.20;;;10.00;1.00;;;;;;5050024;28;20508;-83
2024/03/20 06:54:34;;;;;;;7.60;6.90;;;10.10;1.00;;;;;;5039771;28;20460;-82
2024/03/20 06:57:03;;;;;;;9.13;7.80;;;10.20;1.00;;;;;;5033095;28;20583;-83
2024/03/20 06:59:33;;;;;;;7.50;6.90;;;10.20;1.00;;;;;;5038778;28;20556;-82
2024/03/20 07:02:01;;;;;;;8.77;8.03;;;10.30;1.00;;;;;;5036952;28;20484;-82
2024/03/20 07:04:28;;;;;;;9.83;8.10;;;10.40;1.00;;;;;;5037048;28;20444;-82
2024/03/20 07:06:55;;;;;;;8.43;7.70;;;10.40;1.00;;;;;;5036818;28;21405;-82
2024/03/20 07:09:22;;;;;;;8.30;7.60;;;10.50;1.00;;;;;;5036837;28;20574;-82
2024/03/20 07:11:48;;;;;;;8.93;8.03;;;10.60;1.00;;;;;;5040037;28;20563;-83
2024/03/20 07:14:18;;;;;;;8.50;7.77;;;10.60;1.00;;;;;;5041239;28;20555;-82
2024/03/20 07:16:44;;;;;;;8.80;7.90;;;10.60;1.00;;;;;;5041681;28;20516;-80
2024/03/20 07:19:11;;;;;;;8.23;7.43;;;10.70;1.00;;;;;;5034334;28;20498;-81
2024/03/20 07:21:38;;;;;;;8.63;7.77;;;10.80;1.00;;;;;;5040165;28;20595;-83
2024/03/20 07:24:06;;;;;;;8.67;7.73;;;10.90;1.00;;;;;;5041037;28;20547;-83
2024/03/20 07:26:37;;;;;;;8.93;8.03;;;11.00;1.00;;;;;;5037559;28;20539;-83
2024/03/20 07:29:05;;;;;;;8.77;8.00;;;11.10;1.00;;;;;;5038370;28;20494;-81
2024/03/20 07:31:33;;;;;;;8.50;7.70;;;11.30;1.00;;;;;;5045534;28;20576;-82
2024/03/20 07:34:01;;;;;;;9.03;8.23;;;11.50;99.90;;;;;;5041582;28;20502;-83
2024/03/20 07:36:27;;;;;;;9.00;8.03;;;11.50;99.90;;;;;;5039778;28;20530;-83
2024/03/20 07:38:55;;;;;;;9.57;8.40;;;11.70;99.90;;;;;;5040628;28;20898;-83
2024/03/20 07:41:21;;;;;;;9.43;8.60;;;11.80;99.90;;;;;;5038670;28;20473;-82
2024/03/20 07:43:49;;;;;;;8.80;7.90;;;11.90;99.90;;;;;;5037903;28;20563;-82
2024/03/20 07:46:15;;;;;;;8.50;7.87;;;12.10;99.90;;;;;;5041301;28;20569;-82
2024/03/20 07:48:46;;;;;;;8.17;7.23;;;12.30;99.90;;;;;;5040486;28;20576;-82
2024/03/20 07:51:14;;;;;;;9.63;7.90;;;12.50;99.90;;;;;;5035435;28;20498;-82
2024/03/20 07:53:42;;;;;;;9.23;7.80;;;12.60;99.90;;;;;;5043951;28;21352;-81
2024/03/20 07:56:08;;;;;;;7.53;7.00;;;12.90;99.90;;;;;;5042968;28;20552;-81
2024/03/20 07:58:36;;;;;;;8.23;7.60;;;13.20;99.90;;;;;;5035886;28;20488;-81
2024/03/20 08:01:04;;;;;;;7.70;7.00;;;13.40;99.90;;;;;;5039649;28;20488;-81
2024/03/20 08:03:31;;;;;;;7.50;6.90;;;13.70;99.90;;;;;;5045274;28;20504;-83
2024/03/20 08:05:59;;;;;;;8.83;7.27;;;14.10;99.90;;;;;;5038056;28;20553;-81
2024/03/20 08:08:26;;;;;;;8.93;8.23;;;14.40;99.90;;;;;;5041532;28;21232;-81
2024/03/20 08:10:52;;;;;;;6.77;6.23;;;14.50;99.90;;;;;;5042333;28;20505;-80
2024/03/20 08:13:20;;;;;;;6.70;6.30;;;14.70;99.90;;;;;;5044229;28;21135;-80
2024/03/20 08:15:46;;;;;;;8.17;7.40;;;14.80;99.90;;;;;;5039929;28;21070;-80
2024/03/20 08:18:14;;;;;;;7.37;6.83;;;15.10;99.90;;;;;;5040003;28;20488;-80
2024/03/20 08:20:40;;;;;;;7.27;6.77;;;15.30;99.90;;;;;;5039318;28;20551;-81
2024/03/20 08:23:09;;;;;;;7.20;6.70;;;15.60;99.90;;;;;;5039112;28;20566;-80
2024/03/20 08:25:35;;;;;;;6.80;6.20;;;15.90;99.90;;;;;;5038415;28;21269;-81
2024/03/20 08:28:03;;;;;;;6.63;6.10;;;16.10;99.90;;;;;;5037506;28;20580;-81
2024/03/20 08:30:29;;;;;;;6.78;6.18;;;16.40;99.90;;;;;;5040595;28;20509;-82
2024/03/20 08:32:56;;;;;;;5.90;5.50;;;16.80;99.90;;;;;;5040808;28;20801;-81
2024/03/20 08:35:22;;;;;;;5.70;5.37;;;17.00;99.90;;;;;;5044940;28;20500;-81
2024/03/20 08:37:49;;;;;;;5.97;5.63;;;17.20;99.90;;;;;;5049526;28;20483;-81
2024/03/20 08:40:17;;;;;;;6.33;5.83;;;17.40;99.90;;;;;;5047091;28;20477;-82
2024/03/20 08:42:44;;;;;;;6.80;6.30;;;17.50;99.90;;;;;;5047287;28;20587;-80
2024/03/20 08:45:11;;;;;;;6.30;5.80;;;17.70;99.90;;;;;;5043253;28;20498;-81
2024/03/20 08:47:38;;;;;;;5.30;5.00;;;17.80;99.90;;;;;;5044520;28;20475;-80
2024/03/20 08:50:05;;;;;;;4.87;4.67;;;18.00;99.90;;;;;;5040499;28;20577;-81
2024/03/20 08:52:33;;;;;;;5.23;4.90;;;18.10;99.90;;;;;;5038179;28;20495;-80
2024/03/20 08:54:59;;;;;;;4.90;4.60;;;18.30;99.90;;;;;;5040737;28;21007;-81
2024/03/20 08:57:28;;;;;;;5.10;4.80;;;18.30;99.90;;;;;;5045142;28;20454;-80
2024/03/20 08:59:54;;;;;;;5.25;4.95;;;18.20;99.90;;;;;;5039631;28;20539;-83
2024/03/20 09:02:21;;;;;;;4.63;4.30;;;18.10;99.90;;;;;;5040044;28;20220;-82
2024/03/20 09:04:47;;;;;;;4.30;4.00;;;18.20;99.90;;;;;;5041326;28;20442;-81
2024/03/20 09:07:15;;;;;;;3.37;3.27;;;18.20;99.90;;;;;;5039305;28;20965;-82
2024/03/20 09:09:41;;;;;;;4.40;4.10;;;18.10;99.90;;;;;;5041168;28;20443;-82
2024/03/20 09:12:08;;;;;;;2.90;2.80;;;18.30;99.90;;;;;;5041794;28;20470;-82
2024/03/20 09:14:36;;;;;;;2.90;2.80;;;18.40;99.90;;;;;;5040274;28;20496;-82
2024/03/20 09:17:03;;;;;;;3.10;2.90;;;18.80;99.90;;;;;;5037798;28;20554;-83
2024/03/20 09:19:29;;;;;;;2.80;2.70;;;19.10;99.90;;;;;;5028946;28;20494;-82
2024/03/20 09:21:56;;;;;;;3.03;2.83;;;19.30;99.90;;;;;;5035132;28;20476;-83
2024/03/20 09:24:22;;;;;;;2.63;2.53;;;19.70;99.90;;;;;;5038599;28;20543;-83
2024/03/20 09:26:51;;;;;;;2.33;2.13;;;20.00;99.90;;;;;;5035248;28;20551;-82
2024/03/20 09:29:17;;;;;;;2.72;2.63;;;20.20;99.90;;;;;;5037298;28;20480;-82
2024/03/20 09:31:46;;;;;;;2.80;2.70;;;20.30;99.90;;;;;;5037464;28;20251;-82
2024/03/20 09:34:12;;;;;;;2.30;2.20;;;20.40;99.90;;;;;;5040321;28;20564;-83
2024/03/20 09:36:39;;;;;;;3.73;2.67;;;20.80;99.90;;;;;;5031152;28;20928;-81
2024/03/20 09:39:05;;;;;;;2.00;1.90;;;21.30;99.90;;;;;;5034369;28;20480;-83
2024/03/20 09:41:34;;;;;;;2.60;2.43;;;21.30;99.90;;;;;;5037768;28;21002;-82
2024/03/20 09:44:00;;;;;;;2.77;2.57;;;21.20;99.90;;;;;;5041237;28;21027;-82
2024/03/20 09:46:28;;;;;;;2.03;1.93;;;21.40;99.90;;;;;;5037974;28;20555;-82
2024/03/20 09:48:56;;;;;;;2.10;2.00;;;21.60;99.90;;;;;;5039363;28;20974;-82
2024/03/20 09:51:24;;;;;;;3.37;2.00;;;21.80;99.90;;;;;;5033668;28;20541;-83
2024/03/20 09:53:52;;;;;;;2.37;2.20;;;22.00;99.90;;;;;;5038188;28;20471;-82
2024/03/20 09:56:20;;;;;;;3.80;2.43;;;21.70;99.90;;;;;;5035162;28;20494;-82
2024/03/20 09:58:47;;;;;;;5.23;2.70;;;21.40;99.90;;;;;;5038053;28;20475;-83
2024/03/20 10:01:16;;;;;;;2.40;2.30;;;21.20;99.90;;;;;;5036558;28;20543;-82
2024/03/20 10:03:43;;;;;;;1.70;1.60;;;21.00;99.90;;;;;;5042834;28;20534;-82
2024/03/20 10:06:12;;;;;;;1.80;1.70;;;20.80;99.90;;;;;;5033959;28;20461;-81
2024/03/20 10:08:38;;;;;;;1.60;1.60;;;20.70;99.90;;;;;;5040281;28;20468;-82
2024/03/20 10:11:07;;;;;;;1.60;1.60;;;20.40;99.90;;;;;;5036915;28;20575;-81
2024/03/20 10:13:33;;;;;;;1.63;1.60;;;20.00;99.90;;;;;;5038265;28;20511;-82
2024/03/20 10:16:08;;;;;;;2.23;1.40;;;19.90;99.90;;;;;;5038249;28;20996;-81
2024/03/20 10:18:34;;;;;;;1.70;1.60;;;19.60;99.90;;;;;;5039847;28;20467;-81
2024/03/20 10:21:02;;;;;;;1.80;1.70;;;19.50;99.90;;;;;;5041678;28;20455;-81
2024/03/20 10:23:29;;;;;;;1.80;1.70;;;19.50;99.90;;;;;;5022365;28;20542;-81
2024/03/20 10:26:00;;;;;;;1.73;1.63;;;19.40;99.90;;;;;;5042819;28;20452;-82
2024/03/20 10:28:29;;;;;;;2.00;1.90;;;19.50;99.90;;;;;;5037321;28;20467;-81
2024/03/20 10:31:02;;;;;;;1.50;1.40;;;19.70;99.90;;;;;;5038758;28;20501;-82
2024/03/20 10:33:29;;;;;;;1.60;1.50;;;19.70;99.90;;;;;;5038592;28;20494;-81
2024/03/20 10:35:56;;;;;;;1.60;1.50;;;19.60;99.90;;;;;;5038175;28;20456;-81
2024/03/20 10:38:23;;;;;;;2.07;1.97;;;19.50;99.90;;;;;;5034703;28;20464;-81
2024/03/20 10:40:52;;;;;;;1.60;1.50;;;19.50;99.90;;;;;;5042715;28;20554;-81
2024/03/20 10:43:20;;;;;;;1.50;1.40;;;19.70;99.90;;;;;;5035835;28;20507;-81
2024/03/20 10:45:48;;;;;;;1.63;1.53;;;19.70;99.90;;;;;;5036315;28;20556;-82
2024/03/20 10:48:16;;;;;;;1.50;1.50;;;19.60;99.90;;;;;;5035646;28;20536;-81
2024/03/20 10:50:46;;;;;;;1.70;1.60;;;19.60;99.90;;;;;;5038887;28;20555;-81
2024/03/20 10:53:13;;;;;;;1.43;1.33;;;19.60;99.90;;;;;;5039525;28;20486;-81
2024/03/20 10:55:41;;;;;;;1.60;1.50;;;19.80;99.90;;;;;;5041288;28;20562;-81
2024/03/20 10:58:10;;;;;;;1.63;1.40;;;19.80;99.90;;;;;;5042312;28;20443;-81
2024/03/20 11:00:42;;;;;;;1.53;1.40;;;19.80;99.90;;;;;;5043777;28;20440;-82
2024/03/20 11:03:37;;;;;;;2.70;1.50;;;19.70;99.90;;;;;;5041196;28;20567;-81
2024/03/20 11:06:44;;;;;;;1.40;1.40;;;19.70;99.90;;;;;;5040741;28;20452;-81
2024/03/20 11:09:30;;;;;;;1.50;1.33;;;19.80;99.90;;;;;;5036927;28;20584;-81
2024/03/20 11:11:57;;;;;;;1.40;1.30;;;19.70;99.90;;;;;;5044090;28;20491;-81
2024/03/20 11:14:28;;;;;;;2.60;1.90;;;19.80;99.90;;;;;;5040697;28;20492;-81
2024/03/20 11:17:01;;;;;;;1.50;1.40;;;19.80;99.90;;;;;;5043287;28;20478;-81
2024/03/20 11:19:28;;;;;;;1.53;1.43;;;19.80;99.90;;;;;;5037654;28;21485;-82
2024/03/20 11:21:58;;;;;;;1.60;1.60;;;19.70;99.90;;;;;;5039914;28;20498;-81
2024/03/20 11:24:27;;;;;;;1.70;1.60;;;19.80;99.90;;;;;;5037119;28;20643;-81
2024/03/20 11:26:56;;;;;;;1.70;1.60;;;19.80;99.90;;;;;;5040957;28;20479;-81
2024/03/20 11:29:22;;;;;;;1.60;1.50;;;19.70;99.90;;;;;;5038633;28;20462;-81
2024/03/20 11:31:56;;;;;;;2.07;1.97;;;19.70;99.90;;;;;;5025828;28;20447;-81
2024/03/20 11:34:23;;;;;;;2.37;1.50;;;19.50;99.90;;;;;;5039906;28;20581;-82
2024/03/20 11:36:51;;;;;;;3.17;2.97;;;19.40;99.90;;;;;;5040158;28;20538;-81
2024/03/20 11:39:17;;;;;;;1.50;1.40;;;19.50;99.90;;;;;;5037299;28;20546;-82
2024/03/20 11:41:45;;;;;;;2.03;1.93;;;19.60;99.90;;;;;;5038101;28;20491;-81
2024/03/20 11:44:11;;;;;;;1.50;1.30;;;19.50;99.90;;;;;;5042898;28;20471;-81
2024/03/20 11:46:38;;;;;;;1.60;1.50;;;19.50;99.90;;;;;;5045711;28;20535;-80
2024/03/20 11:49:06;;;;;;;1.80;1.70;;;19.50;99.90;;;;;;5040543;28;20535;-81
2024/03/20 11:51:34;;;;;;;1.30;1.30;;;19.50;99.90;;;;;;5042099;28;20566;-81
2024/03/20 11:54:03;;;;;;;1.30;1.30;;;19.50;99.90;;;;;;5039013;28;20505;-81
2024/03/20 11:56:31;;;;;;;1.60;1.50;;;19.60;99.90;;;;;;5045744;28;20460;-81
2024/03/20 11:58:57;;;;;;;1.40;1.30;;;19.50;99.90;;;;;;5041209;28;20445;-81
2024/03/20 12:01:27;;;;;;;1.30;1.20;;;19.60;99.90;;;;;;5023975;28;20524;-81
2024/03/20 12:03:55;;;;;;;1.60;1.50;;;19.50;99.90;;;;;;5041800;28;20499;-81
2024/03/20 12:06:25;;;;;;;1.30;1.20;;;19.50;99.90;;;;;;5042054;28;20456;-82
2024/03/20 12:08:54;;;;;;;1.30;1.20;;;19.40;99.90;;;;;;5037689;28;20479;-82
2024/03/20 12:11:28;;;;;;;1.20;1.20;;;19.40;99.90;;;;;;5043055;28;20494;-81
2024/03/20 12:13:55;;;;;;;5.20;1.23;;;19.40;99.90;;;;;;5044852;28;20982;-82
2024/03/20 12:16:22;;;;;;;1.60;1.60;;;19.30;99.90;;;;;;5043531;28;20485;-81
2024/03/20 12:18:49;;;;;;;1.67;1.40;;;19.20;99.90;;;;;;5044558;28;20459;-81
2024/03/20 12:21:19;;;;;;;1.50;1.40;;;19.20;99.90;;;;;;5045923;28;20467;-81
2024/03/20 12:23:49;;;;;;;1.50;1.40;;;19.30;99.90;;;;;;5042729;28;20966;-81
2024/03/20 12:26:19;;;;;;;1.20;1.20;;;19.30;99.90;;;;;;5040529;28;20538;-82
2024/03/20 12:28:46;;;;;;;1.80;1.30;;;19.20;99.90;;;;;;5044068;28;20440;-81
2024/03/20 12:31:17;;;;;;;2.87;1.20;;;19.20;99.90;;;;;;5043172;28;20451;-81
2024/03/20 12:33:44;;;;;;;1.30;1.30;;;19.10;99.90;;;;;;5053744;28;20509;-80
2024/03/20 12:36:12;;;;;;;1.47;1.37;;;19.20;99.90;;;;;;5050859;28;20462;-82
2024/03/20 12:38:38;;;;;;;1.30;1.30;;;19.20;99.90;;;;;;5053891;28;20452;-81
2024/03/20 12:41:12;;;;;;;1.30;1.20;;;19.10;99.90;;;;;;5042409;28;20499;-81
2024/03/20 12:43:39;;;;;;;1.10;1.10;;;19.20;99.90;;;;;;5043167;28;20486;-81
2024/03/20 12:46:06;;;;;;;1.13;1.10;;;19.30;99.90;;;;;;5042293;28;20477;-82
2024/03/20 12:48:32;;;;;;;1.63;1.13;;;19.20;99.90;;;;;;5041627;28;20479;-80
2024/03/20 12:51:00;;;;;;;1.43;1.33;;;19.30;99.90;;;;;;5040579;28;20528;-81
2024/03/20 12:53:26;;;;;;;1.50;1.40;;;19.30;99.90;;;;;;5044535;28;20487;-81
2024/03/20 12:55:54;;;;;;;1.10;1.10;;;19.40;99.90;;;;;;5040726;28;20574;-82